sensor_id;sensor_type;location;lat;lon;timestamp;temperature;humidity
7796;DHT22;3942;51.518;6.912;2022-08-04T00:04:59;25.00;99.90
7796;DHT22;3942;51.518;6.912;2022-08-04T00:10:04;24.90;99.90
7796;DHT22;3942;51.518;6.912;2022-08-04T00:15:10;24.90;99.90
7796;DHT22;3942;51.518;6.912;2022-08-04T00:20:17;24.70;99.90
7796;DHT22;3942;51.518;6.912;2022-08-04T00:25:19;24.70;99.90
7796;DHT22;3942;51.518;6.912;2022-08-04T00:42:33;24.70;99.90
7796;DHT22;3942;51.518;6.912;2022-08-04T00:47:43;24.70;99.90
7796;DHT22;3942;51.518;6.912;2022-08-04T00:53:00;24.60;99.90
7796;DHT22;3942;51.518;6.912;2022-08-04T01:03:22;24.60;99.90
7796;DHT22;3942;51.518;6.912;2022-08-04T01:08:43;24.60;99.90
7796;DHT22;3942;51.518;6.912;2022-08-04T01:13:59;24.50;99.90
7796;DHT22;3942;51.518;6.912;2022-08-04T01:19:10;24.50;99.90
7796;DHT22;3942;51.518;6.912;2022-08-04T01:24:29;24.40;99.90
7796;DHT22;3942;51.518;6.912;2022-08-04T01:29:43;24.40;99.90
7796;DHT22;3942;51.518;6.912;2022-08-04T01:39:59;24.30;99.90
7796;DHT22;3942;51.518;6.912;2022-08-04T01:45:07;24.30;99.90
7796;DHT22;3942;51.518;6.912;2022-08-04T01:50:11;24.40;99.90
7796;DHT22;3942;51.518;6.912;2022-08-04T01:55:14;24.20;99.90
7796;DHT22;3942;51.518;6.912;2022-08-04T02:00:20;24.20;99.90
7796;DHT22;3942;51.518;6.912;2022-08-04T02:05:25;24.20;99.90
7796;DHT22;3942;51.518;6.912;2022-08-04T02:10:29;24.00;99.90
7796;DHT22;3942;51.518;6.912;2022-08-04T02:15:41;23.90;99.90
7796;DHT22;3942;51.518;6.912;2022-08-04T02:20:45;24.00;99.90
7796;DHT22;3942;51.518;6.912;2022-08-04T02:25:55;23.90;99.90
7796;DHT22;3942;51.518;6.912;2022-08-04T02:31:12;23.90;99.90
7796;DHT22;3942;51.518;6.912;2022-08-04T02:36:20;23.90;99.90
7796;DHT22;3942;51.518;6.912;2022-08-04T02:41:24;23.90;99.90
7796;DHT22;3942;51.518;6.912;2022-08-04T02:51:33;23.80;99.90
7796;DHT22;3942;51.518;6.912;2022-08-04T02:56:36;23.60;99.90
7796;DHT22;3942;51.518;6.912;2022-08-04T03:07:19;23.50;99.90
7796;DHT22;3942;51.518;6.912;2022-08-04T03:12:51;23.40;99.90
7796;DHT22;3942;51.518;6.912;2022-08-04T03:23:54;23.40;99.90
7796;DHT22;3942;51.518;6.912;2022-08-04T03:29:42;23.30;99.90
7796;DHT22;3942;51.518;6.912;2022-08-04T03:40:34;23.30;99.90
7796;DHT22;3942;51.518;6.912;2022-08-04T03:51:18;23.20;99.90
7796;DHT22;3942;51.518;6.912;2022-08-04T03:57:06;23.10;99.90
7796;DHT22;3942;51.518;6.912;2022-08-04T04:08:25;23.20;99.90
7796;DHT22;3942;51.518;6.912;2022-08-04T04:14:06;23.20;99.90
7796;DHT22;3942;51.518;6.912;2022-08-04T04:19:43;23.20;99.90
7796;DHT22;3942;51.518;6.912;2022-08-04T04:25:04;23.20;99.90
7796;DHT22;3942;51.518;6.912;2022-08-04T04:30:16;23.20;99.90
7796;DHT22;3942;51.518;6.912;2022-08-04T04:35:31;23.20;99.90
7796;DHT22;3942;51.518;6.912;2022-08-04T04:40:43;23.30;99.90
7796;DHT22;3942;51.518;6.912;2022-08-04T04:45:56;23.50;99.90
7796;DHT22;3942;51.518;6.912;2022-08-04T04:51:07;23.70;99.90
7796;DHT22;3942;51.518;6.912;2022-08-04T04:56:18;23.90;99.90
7796;DHT22;3942;51.518;6.912;2022-08-04T05:01:53;24.00;99.90
7796;DHT22;3942;51.518;6.912;2022-08-04T05:07:27;24.30;99.90
7796;DHT22;3942;51.518;6.912;2022-08-04T05:12:51;24.50;99.90
7796;DHT22;3942;51.518;6.912;2022-08-04T05:18:03;24.80;99.90
7796;DHT22;3942;51.518;6.912;2022-08-04T05:23:12;24.70;99.90
7796;DHT22;3942;51.518;6.912;2022-08-04T05:28:14;24.90;99.90
7796;DHT22;3942;51.518;6.912;2022-08-04T05:33:21;25.30;99.90
7796;DHT22;3942;51.518;6.912;2022-08-04T05:38:28;25.40;99.90
7796;DHT22;3942;51.518;6.912;2022-08-04T05:43:32;25.60;99.90
7796;DHT22;3942;51.518;6.912;2022-08-04T05:48:36;25.90;99.90
7796;DHT22;3942;51.518;6.912;2022-08-04T05:53:39;26.30;99.90
7796;DHT22;3942;51.518;6.912;2022-08-04T05:58:43;26.40;99.90
7796;DHT22;3942;51.518;6.912;2022-08-04T06:03:49;26.60;99.90
7796;DHT22;3942;51.518;6.912;2022-08-04T06:08:51;26.80;99.90
7796;DHT22;3942;51.518;6.912;2022-08-04T06:13:55;27.10;99.90
7796;DHT22;3942;51.518;6.912;2022-08-04T06:19:01;27.40;99.90
7796;DHT22;3942;51.518;6.912;2022-08-04T06:24:06;27.60;99.90
7796;DHT22;3942;51.518;6.912;2022-08-04T14:50:58;30.30;99.90
7796;DHT22;3942;51.518;6.912;2022-08-04T14:56:00;30.30;99.90
7796;DHT22;3942;51.518;6.912;2022-08-04T15:01:05;30.20;99.90
7796;DHT22;3942;51.518;6.912;2022-08-04T15:06:08;30.20;99.90
7796;DHT22;3942;51.518;6.912;2022-08-04T15:11:11;30.20;99.90
7796;DHT22;3942;51.518;6.912;2022-08-04T15:16:14;30.20;99.90
7796;DHT22;3942;51.518;6.912;2022-08-04T15:21:17;30.10;99.90
7796;DHT22;3942;51.518;6.912;2022-08-04T15:26:26;30.00;99.90
7796;DHT22;3942;51.518;6.912;2022-08-04T15:31:31;29.90;99.90
7796;DHT22;3942;51.518;6.912;2022-08-04T15:36:47;29.90;99.90
7796;DHT22;3942;51.518;6.912;2022-08-04T15:41:57;29.80;99.90
7796;DHT22;3942;51.518;6.912;2022-08-04T15:47:12;29.90;99.90
7796;DHT22;3942;51.518;6.912;2022-08-04T15:52:16;29.90;99.90
7796;DHT22;3942;51.518;6.912;2022-08-04T15:57:55;30.00;99.90
7796;DHT22;3942;51.518;6.912;2022-08-04T16:08:12;29.70;99.90
7796;DHT22;3942;51.518;6.912;2022-08-04T16:13:17;29.70;99.90
7796;DHT22;3942;51.518;6.912;2022-08-04T16:18:35;29.70;99.90
7796;DHT22;3942;51.518;6.912;2022-08-04T16:24:05;29.70;99.90
7796;DHT22;3942;51.518;6.912;2022-08-04T16:29:27;29.90;99.90
7796;DHT22;3942;51.518;6.912;2022-08-04T16:34:29;29.70;99.90
7796;DHT22;3942;51.518;6.912;2022-08-04T16:44:35;29.30;99.90
7796;DHT22;3942;51.518;6.912;2022-08-04T16:49:42;29.30;99.90
7796;DHT22;3942;51.518;6.912;2022-08-04T16:54:45;29.30;99.90
7796;DHT22;3942;51.518;6.912;2022-08-04T16:59:50;29.30;99.90
7796;DHT22;3942;51.518;6.912;2022-08-04T17:04:52;29.40;99.90
7796;DHT22;3942;51.518;6.912;2022-08-04T17:09:55;29.40;99.90
7796;DHT22;3942;51.518;6.912;2022-08-04T17:14:58;29.20;99.90
7796;DHT22;3942;51.518;6.912;2022-08-04T17:19:59;29.10;99.90
7796;DHT22;3942;51.518;6.912;2022-08-04T17:25:03;29.10;99.90
7796;DHT22;3942;51.518;6.912;2022-08-04T17:30:24;29.00;99.90
7796;DHT22;3942;51.518;6.912;2022-08-04T17:35:26;29.00;99.90
7796;DHT22;3942;51.518;6.912;2022-08-04T17:40:29;29.00;99.90
7796;DHT22;3942;51.518;6.912;2022-08-04T17:55:38;29.20;99.90
7796;DHT22;3942;51.518;6.912;2022-08-04T18:00:41;29.10;99.90
7796;DHT22;3942;51.518;6.912;2022-08-04T18:10:46;29.00;99.90
7796;DHT22;3942;51.518;6.912;2022-08-04T18:20:51;29.00;99.90
7796;DHT22;3942;51.518;6.912;2022-08-04T18:25:54;29.00;99.90
7796;DHT22;3942;51.518;6.912;2022-08-04T18:30:56;28.90;99.90
7796;DHT22;3942;51.518;6.912;2022-08-04T18:35:58;29.00;99.90
7796;DHT22;3942;51.518;6.912;2022-08-04T18:41:01;28.90;99.90
7796;DHT22;3942;51.518;6.912;2022-08-04T18:46:03;28.90;99.90
7796;DHT22;3942;51.518;6.912;2022-08-04T18:51:05;28.90;99.90
7796;DHT22;3942;51.518;6.912;2022-08-04T18:56:08;28.80;99.90
7796;DHT22;3942;51.518;6.912;2022-08-04T19:01:10;28.70;99.90
7796;DHT22;3942;51.518;6.912;2022-08-04T19:06:13;28.60;99.90
7796;DHT22;3942;51.518;6.912;2022-08-04T19:11:16;28.60;99.90
7796;DHT22;3942;51.518;6.912;2022-08-04T19:16:18;28.50;99.90
7796;DHT22;3942;51.518;6.912;2022-08-04T19:21:20;28.50;99.90
7796;DHT22;3942;51.518;6.912;2022-08-04T19:26:24;28.50;99.90
7796;DHT22;3942;51.518;6.912;2022-08-04T19:31:26;28.40;99.90
7796;DHT22;3942;51.518;6.912;2022-08-04T19:36:29;28.30;99.90
7796;DHT22;3942;51.518;6.912;2022-08-04T19:41:33;28.30;99.90
7796;DHT22;3942;51.518;6.912;2022-08-04T19:46:36;28.20;99.90
7796;DHT22;3942;51.518;6.912;2022-08-04T19:51:38;28.20;99.90
7796;DHT22;3942;51.518;6.912;2022-08-04T19:56:41;28.10;99.90
7796;DHT22;3942;51.518;6.912;2022-08-04T20:01:46;28.10;99.90
7796;DHT22;3942;51.518;6.912;2022-08-04T20:06:48;28.00;99.90
7796;DHT22;3942;51.518;6.912;2022-08-04T20:11:56;28.00;99.90
7796;DHT22;3942;51.518;6.912;2022-08-04T20:16:58;27.90;99.90
7796;DHT22;3942;51.518;6.912;2022-08-04T20:27:03;27.80;99.90
7796;DHT22;3942;51.518;6.912;2022-08-04T20:32:05;27.70;99.90
7796;DHT22;3942;51.518;6.912;2022-08-04T20:37:08;27.30;99.90
7796;DHT22;3942;51.518;6.912;2022-08-04T20:42:11;27.10;99.90
7796;DHT22;3942;51.518;6.912;2022-08-04T20:47:13;27.10;99.90
7796;DHT22;3942;51.518;6.912;2022-08-04T20:52:15;26.90;99.90
7796;DHT22;3942;51.518;6.912;2022-08-04T20:57:18;26.90;99.90
7796;DHT22;3942;51.518;6.912;2022-08-04T21:02:20;26.90;99.90
7796;DHT22;3942;51.518;6.912;2022-08-04T21:12:25;26.90;99.90
7796;DHT22;3942;51.518;6.912;2022-08-04T21:17:28;26.70;99.90
7796;DHT22;3942;51.518;6.912;2022-08-04T21:22:30;26.50;99.90
7796;DHT22;3942;51.518;6.912;2022-08-04T21:27:33;26.50;99.90
7796;DHT22;3942;51.518;6.912;2022-08-04T21:32:35;26.50;99.90
7796;DHT22;3942;51.518;6.912;2022-08-04T21:37:36;26.50;99.90
7796;DHT22;3942;51.518;6.912;2022-08-04T21:42:40;26.30;99.90
7796;DHT22;3942;51.518;6.912;2022-08-04T21:47:42;26.30;99.90
7796;DHT22;3942;51.518;6.912;2022-08-04T21:52:44;26.10;99.90
7796;DHT22;3942;51.518;6.912;2022-08-04T21:57:47;26.00;99.90
7796;DHT22;3942;51.518;6.912;2022-08-04T22:07:53;26.00;99.90
7796;DHT22;3942;51.518;6.912;2022-08-04T22:12:56;25.90;99.90
7796;DHT22;3942;51.518;6.912;2022-08-04T22:17:58;25.90;99.90
7796;DHT22;3942;51.518;6.912;2022-08-04T22:23:00;25.70;99.90
7796;DHT22;3942;51.518;6.912;2022-08-04T22:28:03;25.30;99.90
7796;DHT22;3942;51.518;6.912;2022-08-04T22:33:07;25.30;99.90
7796;DHT22;3942;51.518;6.912;2022-08-04T22:38:09;25.00;99.90
7796;DHT22;3942;51.518;6.912;2022-08-04T22:43:13;24.70;99.90
7796;DHT22;3942;51.518;6.912;2022-08-04T22:48:21;23.80;99.90
7796;DHT22;3942;51.518;6.912;2022-08-04T22:53:22;22.50;99.90
7796;DHT22;3942;51.518;6.912;2022-08-04T22:58:26;21.70;99.90
7796;DHT22;3942;51.518;6.912;2022-08-04T23:03:27;21.30;99.90
7796;DHT22;3942;51.518;6.912;2022-08-04T23:08:29;21.10;99.90
7796;DHT22;3942;51.518;6.912;2022-08-04T23:13:33;20.90;99.90
7796;DHT22;3942;51.518;6.912;2022-08-04T23:18:35;20.80;99.90
7796;DHT22;3942;51.518;6.912;2022-08-04T23:23:37;20.80;99.90
7796;DHT22;3942;51.518;6.912;2022-08-04T23:28:41;20.80;99.90
7796;DHT22;3942;51.518;6.912;2022-08-04T23:33:45;20.70;99.90
7796;DHT22;3942;51.518;6.912;2022-08-04T23:38:47;20.70;99.90
7796;DHT22;3942;51.518;6.912;2022-08-04T23:43:50;20.70;99.90
7796;DHT22;3942;51.518;6.912;2022-08-04T23:48:52;20.70;99.90
7796;DHT22;3942;51.518;6.912;2022-08-04T23:53:54;20.60;99.90
7796;DHT22;3942;51.518;6.912;2022-08-04T23:58:57;20.60;99.90
